Time;durP1;ratioP1;P1;durP2;ratioP2;P2;SDS_P1;SDS_P2;PMS_P1;PMS_P2;Temp;Humidity;BMP_temperature;BMP_pressure;BME280_temperature;BME280_humidity;BME280_pressure;Samples;Min_cycle;Max_cycle;Signal;HPM_P1;HPM_P2
2022/03/25 00:00:26;;;;;;;7.70;4.03;;;;;;;9.09;53.72;97018.91;5027864;28;20213;-80
2022/03/25 00:03:34;;;;;;;5.33;3.70;;;;;;;9.05;53.66;97029.25;5067394;28;20208;-80
2022/03/25 00:09:48;;;;;;;6.93;4.63;;;;;;;9.02;54.51;97020.72;4993296;28;20227;-80
2022/03/25 00:12:31;;;;;;;7.13;4.87;;;;;;;8.85;55.80;97022.13;5050859;28;20301;-80
2022/03/25 00:18:21;;;;;;;11.20;4.90;;;;;;;8.51;56.78;97021.19;5020448;28;20336;-80
2022/03/25 00:25:21;;;;;;;6.13;4.70;;;;;;;8.37;57.99;97021.34;5063520;28;20232;-80
2022/03/25 00:28:10;;;;;;;6.93;4.93;;;;;;;8.36;58.86;97023.19;5053063;28;20206;-80
2022/03/25 00:31:30;;;;;;;7.03;4.83;;;;;;;8.37;58.32;97016.78;5063903;28;20263;-80
2022/03/25 00:42:22;;;;;;;;;;;;;;;;;;;;;
2022/03/25 00:45:21;;;;;;;9.17;5.10;;;;;;;7.91;60.77;97011.16;5031576;28;20203;-80
2022/03/25 00:48:04;;;;;;;7.87;5.20;;;;;;;7.92;59.92;97016.31;5050017;28;20207;-80
2022/03/25 00:51:34;;;;;;;7.90;5.03;;;;;;;7.90;60.06;97010.31;5017692;28;20674;-80
2022/03/25 00:54:05;;;;;;;8.20;5.20;;;;;;;7.99;60.37;97006.41;4932631;28;20302;-80
2022/03/25 00:59:18;;;;;;;7.37;4.80;;;;;;;7.93;61.22;97001.84;5027598;28;20218;-80
2022/03/25 01:01:45;;;;;;;6.53;4.17;;;;;;;7.85;61.11;97007.38;5025829;28;20202;-80
2022/03/25 01:04:12;;;;;;;7.13;5.10;;;;;;;7.83;61.17;97003.22;5043711;28;20226;-80
2022/03/25 01:07:02;;;;;;;6.20;4.83;;;;;;;7.81;61.33;96994.53;5031808;28;20202;-80
2022/03/25 01:09:40;;;;;;;5.20;3.87;;;;;;;7.79;60.96;96997.41;5026156;28;20207;-80
2022/03/25 01:12:09;;;;;;;4.67;3.60;;;;;;;7.80;60.20;97004.44;5043245;28;20598;-80
2022/03/25 01:14:36;;;;;;;4.77;3.60;;;;;;;7.82;59.79;96997.03;5025796;28;20226;-80
2022/03/25 01:17:04;;;;;;;6.30;3.97;;;;;;;7.76;59.66;96995.09;5029716;28;20620;-80
2022/03/25 01:19:41;;;;;;;6.87;4.20;;;;;;;7.72;60.03;96991.16;5031572;28;20209;-80
2022/03/25 01:22:08;;;;;;;5.43;3.80;;;;;;;7.76;59.84;96996.97;5039402;28;20216;-80
2022/03/25 01:24:56;;;;;;;5.43;4.27;;;;;;;7.73;60.07;96992.00;5032586;28;20226;-80
2022/03/25 01:27:25;;;;;;;7.50;5.20;;;;;;;7.65;61.19;96989.47;5019191;28;20271;-80
2022/03/25 01:29:58;;;;;;;7.47;4.87;;;;;;;7.61;61.63;96994.38;5017751;28;20325;-80
2022/03/25 01:32:25;;;;;;;8.30;5.33;;;;;;;7.57;61.65;97004.69;5026780;28;20280;-80
2022/03/25 01:34:52;;;;;;;7.30;4.87;;;;;;;7.52;62.13;97011.69;5029270;28;20237;-80
2022/03/25 01:37:19;;;;;;;7.33;4.30;;;;;;;7.45;62.46;97008.94;5046549;28;20210;-80
2022/03/25 01:39:46;;;;;;;6.43;4.60;;;;;;;7.33;62.79;97012.34;5030679;28;20199;-80
2022/03/25 01:42:13;;;;;;;6.17;4.27;;;;;;;7.35;63.17;97005.75;5029869;28;20302;-80
2022/03/25 01:44:41;;;;;;;7.00;4.33;;;;;;;7.39;63.44;97006.22;5044680;28;20264;-80
2022/03/25 01:47:09;;;;;;;5.93;4.20;;;;;;;7.37;62.62;97005.56;5039654;28;20210;-80
2022/03/25 01:49:36;;;;;;;6.93;3.90;;;;;;;7.39;62.00;97003.53;5025734;28;20202;-80
2022/03/25 01:52:04;;;;;;;5.50;4.37;;;;;;;7.44;62.20;97009.97;5043528;28;20285;-80
2022/03/25 01:54:35;;;;;;;5.43;3.83;;;;;;;7.45;62.74;97003.56;5040857;28;20214;-80
2022/03/25 01:57:08;;;;;;;6.83;4.53;;;;;;;7.43;62.83;97007.47;5028768;28;20291;-80
2022/03/25 01:59:36;;;;;;;6.80;4.73;;;;;;;7.32;62.92;97006.13;5034417;28;20246;-79
2022/03/25 02:02:07;;;;;;;9.87;5.83;;;;;;;7.21;64.21;97009.38;5026058;28;20260;-79
2022/03/25 02:04:35;;;;;;;6.10;4.67;;;;;;;7.06;64.97;97009.41;5022390;28;20210;-79
2022/03/25 02:07:03;;;;;;;8.87;5.10;;;;;;;6.89;65.76;96993.78;5029920;28;20199;-80
2022/03/25 02:09:30;;;;;;;8.57;5.60;;;;;;;6.75;66.59;96999.00;5021683;28;20264;-79
2022/03/25 02:12:01;;;;;;;8.13;5.13;;;;;;;6.71;67.16;96997.72;5021512;28;20224;-80
2022/03/25 02:14:28;;;;;;;6.60;4.93;;;;;;;6.74;66.25;96999.19;5047552;28;20241;-79
2022/03/25 02:16:56;;;;;;;6.40;4.37;;;;;;;6.73;66.08;96998.34;5040431;28;20206;-79
2022/03/25 02:19:25;;;;;;;7.17;4.10;;;;;;;6.73;65.87;97001.03;5038557;28;20212;-80
2022/03/25 02:21:53;;;;;;;7.07;4.40;;;;;;;6.75;65.25;96998.16;5031867;28;20205;-80
2022/03/25 02:24:28;;;;;;;5.93;3.87;;;;;;;6.81;65.29;97000.06;5038603;28;20308;-79
2022/03/25 02:26:56;;;;;;;7.70;4.77;;;;;;;6.87;64.98;96990.44;5048444;28;20261;-79
2022/03/25 02:32:33;;;;;;;5.57;3.53;;;;;;;6.82;64.54;96997.22;4982661;28;20248;-80
2022/03/25 02:35:00;;;;;;;5.13;3.93;;;;;;;6.80;64.12;96993.06;5044706;28;20238;-80
2022/03/25 02:37:29;;;;;;;5.23;4.20;;;;;;;6.81;61.91;96981.28;5059442;28;20269;-79
2022/03/25 02:39:56;;;;;;;6.80;4.30;;;;;;;6.84;63.02;96992.47;5042554;28;20209;-80
2022/03/25 02:42:23;;;;;;;4.97;3.60;;;;;;;6.84;64.01;96995.16;5044542;28;20221;-79
2022/03/25 02:45:05;;;;;;;8.17;4.30;;;;;;;6.80;64.74;96991.19;5061867;28;20270;-80
2022/03/25 02:47:55;;;;;;;7.47;4.70;;;;;;;6.52;66.17;97000.19;5060359;28;20206;-80
2022/03/25 02:50:25;;;;;;;6.50;4.43;;;;;;;6.41;66.34;96993.44;5043014;28;20233;-80
2022/03/25 02:53:17;;;;;;;7.10;4.53;;;;;;;6.39;66.65;96992.81;5051686;28;20201;-80
2022/03/25 03:01:06;;;;;;;6.20;3.90;;;;;;;6.31;66.93;96992.91;5160727;27;20321;-79
2022/03/25 03:03:35;;;;;;;5.20;4.03;;;;;;;6.33;67.10;96990.88;5154613;27;20214;-79
2022/03/25 03:06:03;;;;;;;5.83;3.90;;;;;;;6.39;66.17;96992.81;5133415;27;20203;-79
2022/03/25 03:08:30;;;;;;;5.97;4.17;;;;;;;6.43;66.66;96986.88;5154698;27;20191;-79
2022/03/25 03:10:59;;;;;;;5.90;4.20;;;;;;;6.42;66.40;96995.94;5146551;27;20223;-79
2022/03/25 03:13:26;;;;;;;5.37;3.97;;;;;;;6.44;65.96;96990.41;5125282;27;20244;-79
2022/03/25 03:15:53;;;;;;;5.93;4.37;;;;;;;6.38;66.24;96991.16;5118632;28;20303;-79
2022/03/25 03:18:21;;;;;;;5.33;3.90;;;;;;;6.32;65.81;96991.88;5134114;27;20201;-79
2022/03/25 03:20:48;;;;;;;5.80;4.63;;;;;;;6.29;66.37;96993.13;5162609;27;20305;-79
2022/03/25 03:23:16;;;;;;;6.00;3.70;;;;;;;6.29;67.02;96994.97;5125373;27;20508;-79
2022/03/25 03:25:53;;;;;;;4.77;4.00;;;;;;;6.27;67.24;96984.44;5122126;27;20199;-79
2022/03/25 03:28:35;;;;;;;6.77;4.13;;;;;;;6.18;66.65;96985.53;5117923;27;20205;-79
2022/03/25 03:31:02;;;;;;;8.27;4.57;;;;;;;6.11;67.19;96987.31;5123249;27;20271;-79
2022/03/25 03:33:36;;;;;;;12.73;4.40;;;;;;;6.07;67.30;96977.97;5115152;28;20337;-79
2022/03/25 03:36:04;;;;;;;5.27;4.20;;;;;;;6.05;67.77;96985.34;5142408;27;20202;-79
2022/03/25 03:38:31;;;;;;;7.33;4.60;;;;;;;6.04;68.57;96989.88;5117357;27;20195;-79
2022/03/25 03:40:58;;;;;;;7.10;4.57;;;;;;;6.05;68.82;96986.19;5110717;27;20349;-79
2022/03/25 03:43:25;;;;;;;5.97;4.40;;;;;;;5.97;68.10;96986.28;5119001;27;20200;-79
2022/03/25 03:45:52;;;;;;;6.30;4.10;;;;;;;5.94;68.16;96983.16;5118173;27;20290;-79
2022/03/25 03:48:19;;;;;;;6.83;4.57;;;;;;;5.89;69.10;96983.72;5149209;27;20208;-78
2022/03/25 03:50:49;;;;;;;6.93;4.30;;;;;;;5.90;69.31;96982.69;5121171;27;20207;-79
2022/03/25 03:53:16;;;;;;;7.53;4.60;;;;;;;6.00;69.12;96987.78;5124627;27;20210;-79
2022/03/25 03:55:43;;;;;;;5.43;4.13;;;;;;;6.06;68.98;96973.63;5152298;27;20199;-79
2022/03/25 03:58:10;;;;;;;6.90;4.30;;;;;;;6.06;68.34;96977.13;5121685;27;20242;-79
2022/03/25 04:00:37;;;;;;;6.70;4.27;;;;;;;6.04;68.01;96981.00;5090651;28;20233;-79
2022/03/25 04:03:06;;;;;;;5.33;4.17;;;;;;;5.97;68.78;96988.13;5101072;28;20232;-79
2022/03/25 04:05:33;;;;;;;5.90;4.13;;;;;;;5.94;69.03;96986.69;5088517;28;20220;-79
2022/03/25 04:08:21;;;;;;;6.33;4.50;;;;;;;5.94;68.61;96986.69;5098162;28;20235;-79
2022/03/25 04:11:04;;;;;;;8.93;4.77;;;;;;;5.76;69.83;96980.00;5088249;28;20274;-78
2022/03/25 04:13:31;;;;;;;9.77;4.87;;;;;;;5.55;71.26;96980.72;5116027;27;20205;-79
2022/03/25 04:16:08;;;;;;;7.70;4.47;;;;;;;5.53;71.28;96982.75;5086211;28;20205;-79
2022/03/25 04:18:36;;;;;;;6.23;4.27;;;;;;;5.50;70.69;96978.59;5107009;27;20208;-79
2022/03/25 04:21:24;;;;;;;6.00;4.40;;;;;;;5.46;68.38;96979.13;5084605;28;20251;-79
2022/03/25 04:23:52;;;;;;;9.43;4.70;;;;;;;5.58;66.67;96993.75;5073240;28;20225;-79
2022/03/25 04:26:19;;;;;;;5.20;4.10;;;;;;;5.70;66.27;96990.41;5081063;28;20205;-79
2022/03/25 04:28:46;;;;;;;7.27;4.93;;;;;;;5.81;65.18;96999.84;5082887;28;20215;-79
2022/03/25 04:31:13;;;;;;;7.77;4.63;;;;;;;5.89;65.64;97007.00;5070456;28;20212;-79
2022/03/25 04:33:41;;;;;;;7.97;4.73;;;;;;;5.89;66.69;97001.63;5080736;28;20217;-79
2022/03/25 04:36:09;;;;;;;7.60;5.10;;;;;;;5.81;67.89;97005.22;5071711;28;20233;-79
2022/03/25 04:38:39;;;;;;;6.50;5.10;;;;;;;5.57;69.92;97005.47;5075333;28;20280;-78
2022/03/25 04:41:09;;;;;;;5.73;4.40;;;;;;;5.49;70.51;97005.56;5073052;28;20235;-79
2022/03/25 04:43:36;;;;;;;8.13;5.17;;;;;;;5.41;71.26;97006.47;5071366;28;20217;-79
2022/03/25 04:46:04;;;;;;;6.47;4.63;;;;;;;5.35;71.87;96998.34;5080311;28;20216;-78
2022/03/25 04:48:32;;;;;;;7.10;4.87;;;;;;;5.24;73.03;96999.59;5090015;28;20216;-79
2022/03/25 04:50:59;;;;;;;6.77;4.50;;;;;;;5.25;73.02;97002.09;5084597;28;20254;-78
2022/03/25 04:53:26;;;;;;;5.70;4.07;;;;;;;5.31;72.76;96998.69;5076763;28;20201;-79
2022/03/25 04:55:55;;;;;;;7.40;4.97;;;;;;;5.37;72.31;97007.84;5081368;28;20283;-79
2022/03/25 04:58:23;;;;;;;7.80;5.00;;;;;;;5.29;72.23;97011.44;5115171;27;20259;-78
2022/03/25 05:00:50;;;;;;;7.93;4.63;;;;;;;5.25;72.70;97011.97;5082932;28;20244;-79
2022/03/25 05:03:19;;;;;;;5.63;4.57;;;;;;;5.21;72.65;97014.19;5087090;28;20201;-78
2022/03/25 05:05:47;;;;;;;7.37;5.13;;;;;;;5.15;73.05;97014.06;5086068;28;20262;-78
2022/03/25 05:08:14;;;;;;;6.50;5.10;;;;;;;5.17;73.18;97015.56;5084501;28;20286;-78
2022/03/25 05:10:41;;;;;;;5.33;4.50;;;;;;;5.20;72.09;97015.19;5076106;28;20298;-79
2022/03/25 05:13:08;;;;;;;7.40;4.77;;;;;;;5.17;72.76;97014.72;5087570;28;20204;-79
2022/03/25 05:15:37;;;;;;;7.43;4.53;;;;;;;5.11;74.36;97020.78;5074327;28;20208;-78
2022/03/25 05:18:05;;;;;;;7.63;5.13;;;;;;;5.12;74.36;97019.78;5101125;28;20216;-78
2022/03/25 05:20:36;;;;;;;7.97;4.60;;;;;;;5.16;73.79;97027.28;5080769;28;20232;-79
2022/03/25 05:23:06;;;;;;;6.90;4.87;;;;;;;5.18;73.42;97032.47;5076167;28;20300;-79
2022/03/25 05:25:44;;;;;;;7.73;4.87;;;;;;;5.10;73.65;97027.19;5078721;28;20213;-78
2022/03/25 05:28:11;;;;;;;8.23;4.67;;;;;;;5.12;73.88;97023.28;5071114;28;20268;-78
2022/03/25 05:30:44;;;;;;;8.30;4.87;;;;;;;5.04;74.13;97022.50;5083861;28;20219;-79
2022/03/25 05:33:16;;;;;;;8.33;4.70;;;;;;;5.06;74.11;97042.75;5106847;27;20296;-79
2022/03/25 05:35:54;;;;;;;6.20;5.00;;;;;;;5.04;72.40;97034.06;5079640;28;20300;-79
2022/03/25 05:38:35;;;;;;;6.03;4.70;;;;;;;5.08;70.75;97035.38;5075982;28;20401;-79
2022/03/25 05:41:16;;;;;;;7.20;4.40;;;;;;;5.13;70.54;97041.00;5073930;28;20229;-78
2022/03/25 05:43:44;;;;;;;8.13;5.23;;;;;;;5.04;72.34;97047.44;5076436;28;20232;-78
2022/03/25 05:46:12;;;;;;;8.30;5.30;;;;;;;4.95;73.44;97043.16;5080134;28;20299;-78
2022/03/25 05:48:39;;;;;;;9.93;5.87;;;;;;;4.89;74.62;97050.06;5070269;28;20201;-78
2022/03/25 05:51:07;;;;;;;10.23;6.07;;;;;;;4.87;74.35;97032.50;5081249;28;20192;-78
2022/03/25 05:53:34;;;;;;;8.60;5.57;;;;;;;4.84;73.87;97035.56;5082385;28;20212;-78
2022/03/25 05:56:05;;;;;;;8.50;5.73;;;;;;;4.79;73.66;97030.72;5077629;28;20264;-78
2022/03/25 05:58:33;;;;;;;9.50;6.07;;;;;;;4.83;73.94;97033.91;5081049;28;20231;-78
2022/03/25 06:01:19;;;;;;;10.67;5.63;;;;;;;4.89;73.23;97030.50;5075196;28;20330;-78
2022/03/25 06:03:46;;;;;;;13.80;5.73;;;;;;;4.92;72.75;97030.97;5074474;28;20213;-78
2022/03/25 06:06:23;;;;;;;9.77;5.50;;;;;;;5.01;72.38;97026.41;5086547;28;20200;-78
2022/03/25 06:08:56;;;;;;;7.23;5.30;;;;;;;5.14;72.48;97026.63;5082825;28;20290;-78
2022/03/25 06:11:37;;;;;;;6.77;4.83;;;;;;;5.24;71.56;97034.41;5068635;28;20205;-78
2022/03/25 06:14:04;;;;;;;11.53;6.43;;;;;;;5.18;70.23;97027.94;5076647;28;20286;-78
2022/03/25 06:16:33;;;;;;;10.23;5.90;;;;;;;5.11;70.87;97035.00;5080991;28;20202;-78
2022/03/25 06:19:24;;;;;;;8.03;5.13;;;;;;;5.06;71.78;97034.72;5080594;28;20209;-78
2022/03/25 06:21:55;;;;;;;7.80;5.33;;;;;;;5.16;72.12;97035.31;5106486;27;20239;-79
2022/03/25 06:24:22;;;;;;;9.27;5.83;;;;;;;5.16;71.97;97027.28;5078769;28;20221;-78
2022/03/25 06:26:49;;;;;;;11.97;6.40;;;;;;;5.27;71.96;97029.50;5083756;28;20211;-78
2022/03/25 06:29:22;;;;;;;8.83;5.93;;;;;;;5.36;70.80;97026.78;5073771;28;20215;-78
2022/03/25 06:31:59;;;;;;;10.93;5.97;;;;;;;5.32;70.59;97031.66;5083419;28;20289;-78
2022/03/25 06:34:47;;;;;;;9.83;5.67;;;;;;;5.26;70.97;97041.25;5115024;27;20273;-78
2022/03/25 06:37:22;;;;;;;7.30;5.30;;;;;;;5.27;70.68;97034.06;5095969;28;20292;-78
2022/03/25 06:43:46;;;;;;;8.17;5.23;;;;;;;5.30;70.91;97034.50;5069151;28;20203;-78
2022/03/25 06:46:50;;;;;;;6.80;5.47;;;;;;;5.49;68.34;97038.53;5086312;28;20304;-78
2022/03/25 06:49:44;;;;;;;;;;;;;;;;;;;;;
2022/03/25 06:52:26;;;;;;;11.97;5.67;;;;;;;5.64;68.09;97030.53;5104769;28;20208;-78
2022/03/25 06:55:07;;;;;;;8.37;5.83;;;;;;;5.61;68.89;97038.94;5108100;27;20318;-78
2022/03/25 06:57:35;;;;;;;9.93;6.73;;;;;;;5.52;69.60;97037.34;5080400;28;20200;-78
2022/03/25 07:00:04;;;;;;;12.27;6.60;;;;;;;5.50;69.96;97026.81;5075001;28;20228;-78
2022/03/25 07:02:35;;;;;;;13.57;7.07;;;;;;;5.54;70.33;97032.63;5085355;28;20413;-78
2022/03/25 07:05:10;;;;;;;8.60;6.40;;;;;;;5.52;71.25;97026.63;5085512;28;20220;-78
2022/03/25 07:07:40;;;;;;;11.60;6.20;;;;;;;5.59;70.08;97032.94;5074329;28;20197;-78
2022/03/25 07:10:19;;;;;;;10.13;6.43;;;;;;;5.64;70.26;97030.53;5081059;28;20293;-78
2022/03/25 07:12:55;;;;;;;8.37;6.40;;;;;;;5.63;70.38;97028.84;5071232;28;20209;-78
2022/03/25 07:15:37;;;;;;;12.87;7.30;;;;;;;5.56;70.85;97022.56;5077564;28;20208;-78
2022/03/25 07:18:11;;;;;;;9.67;6.10;;;;;;;5.57;71.58;97029.59;5077626;28;20296;-78
2022/03/25 07:20:47;;;;;;;9.77;6.80;;;;;;;5.56;72.50;97020.72;5079381;28;20236;-78
2022/03/25 07:23:44;;;;;;;10.87;6.63;;;;;;;5.62;72.62;97022.66;5081992;28;20253;-78
2022/03/25 07:26:22;;;;;;;11.33;6.17;;;;;;;5.70;72.96;97021.75;5074280;28;20204;-78
2022/03/25 07:29:00;;;;;;;11.13;6.30;;;;;;;5.84;73.17;97031.66;5068870;28;20276;-78
2022/03/25 07:31:44;;;;;;;9.63;6.63;;;;;;;5.82;72.31;97028.31;5082968;28;20294;-81
2022/03/25 07:34:11;;;;;;;13.20;6.57;;;;;;;5.83;72.97;97021.94;5067091;28;20209;-81
2022/03/25 07:36:54;;;;;;;7.87;5.73;;;;;;;5.88;73.19;97032.13;5083363;28;20235;-79
2022/03/25 07:39:48;;;;;;;18.37;11.33;;;;;;;5.84;71.57;97031.66;5085767;28;20201;-82
2022/03/25 07:42:26;;;;;;;21.90;10.37;;;;;;;5.78;71.00;97036.94;5023122;28;20261;-79
2022/03/25 07:45:11;;;;;;;14.33;9.50;;;;;;;5.67;71.04;97033.69;5010371;28;20203;-79
2022/03/25 07:50:38;;;;;;;14.83;8.80;;;;;;;5.69;71.14;97025.47;4910489;28;20218;-79
2022/03/25 07:53:27;;;;;;;12.97;7.67;;;;;;;5.73;71.92;97029.41;4965756;28;20282;-80
2022/03/25 07:56:34;;;;;;;;;;;;;;;;;;;;;
2022/03/25 07:59:36;;;;;;;9.67;6.87;;;;;;;5.86;72.85;97040.34;5003912;28;20214;-81
2022/03/25 08:02:12;;;;;;;9.77;6.90;;;;;;;5.82;72.12;97047.09;5080298;28;20256;-82
2022/03/25 08:04:44;;;;;;;9.57;5.90;;;;;;;5.88;69.81;97046.38;5099021;28;20204;-81
2022/03/25 08:07:19;;;;;;;11.77;6.10;;;;;;;6.03;69.07;97047.22;5110248;27;20239;-80
2022/03/25 08:09:49;;;;;;;12.33;6.40;;;;;;;6.16;68.11;97045.72;5100020;28;20246;-81
2022/03/25 08:12:21;;;;;;;7.97;6.23;;;;;;;6.25;67.46;97042.78;5097211;28;20209;-80
2022/03/25 08:14:48;;;;;;;9.37;5.67;;;;;;;6.36;66.46;97030.75;5101731;28;20201;-81
2022/03/25 08:17:35;;;;;;;9.33;5.63;;;;;;;6.45;66.91;97035.81;5101264;28;20193;-80
2022/03/25 08:20:04;;;;;;;7.47;5.00;;;;;;;6.64;66.55;97047.78;5135188;27;20213;-77
2022/03/25 08:22:36;;;;;;;7.67;4.80;;;;;;;6.90;65.68;97024.94;5095602;28;20224;-80
2022/03/25 08:28:01;;;;;;;7.10;5.13;;;;;;;7.76;64.82;97027.38;5127310;27;20205;-81
2022/03/25 08:30:41;;;;;;;10.43;6.20;;;;;;;8.25;63.06;97029.94;5096817;27;20188;-79
2022/03/25 08:33:08;;;;;;;9.53;5.80;;;;;;;8.68;60.82;97029.75;5103718;28;20206;-79
2022/03/25 08:35:48;;;;;;;14.13;6.87;;;;;;;9.15;59.88;97025.31;5104754;27;20300;-80
2022/03/25 08:38:16;;;;;;;11.70;6.60;;;;;;;9.58;59.32;97018.53;5102484;28;20240;-81
2022/03/25 08:40:44;;;;;;;10.47;6.20;;;;;;;10.03;57.33;97024.94;5098015;28;20235;-81
2022/03/25 08:43:11;;;;;;;14.50;7.43;;;;;;;10.35;54.65;97020.50;5106501;28;20274;-80
2022/03/25 08:48:27;;;;;;;8.23;6.47;;;;;;;10.83;53.04;97028.22;5104195;27;20224;-81
2022/03/25 08:53:39;;;;;;;14.37;7.90;;;;;;;11.25;50.51;97014.03;5088625;28;20201;-81
2022/03/25 08:56:07;;;;;;;12.50;7.67;;;;;;;11.42;50.52;97024.31;5109985;27;20615;-81
2022/03/25 08:58:35;;;;;;;14.40;7.30;;;;;;;11.58;50.54;97012.97;5113842;27;20200;-81
2022/03/25 09:01:08;;;;;;;11.37;6.80;;;;;;;11.78;50.24;97018.25;5075274;28;20239;-82
2022/03/25 09:03:35;;;;;;;17.67;6.80;;;;;;;12.08;49.08;97009.19;5081596;28;20218;-81
2022/03/25 09:06:03;;;;;;;12.30;7.27;;;;;;;12.21;48.16;97005.53;5090404;28;20205;-81
2022/03/25 09:08:31;;;;;;;13.67;7.47;;;;;;;12.41;47.82;97008.88;5084344;28;20396;-82
2022/03/25 09:10:58;;;;;;;11.50;6.60;;;;;;;12.56;47.64;97004.94;5085148;28;20215;-82
2022/03/25 09:13:27;;;;;;;13.77;6.97;;;;;;;12.70;45.53;97007.25;5089072;28;20192;-81
2022/03/25 09:15:57;;;;;;;12.30;6.77;;;;;;;12.73;45.05;97003.28;5093796;28;20212;-81
2022/03/25 09:18:24;;;;;;;10.33;6.83;;;;;;;12.88;43.68;97004.53;5108119;28;20200;-82
2022/03/25 09:20:51;;;;;;;8.83;6.13;;;;;;;13.02;42.37;96993.50;5091414;28;20202;-82
2022/03/25 09:23:18;;;;;;;12.57;6.47;;;;;;;13.20;40.54;96990.75;5106754;28;20227;-81
2022/03/25 09:25:46;;;;;;;10.03;5.87;;;;;;;13.33;41.50;96990.59;5083343;28;20258;-82
2022/03/25 09:31:42;;;;;;;10.03;6.13;;;;;;;13.65;39.50;96988.41;4984542;28;20269;-82
2022/03/25 09:37:25;;;;;;;10.30;6.37;;;;;;;13.95;40.42;96993.75;4968002;28;20268;-82
2022/03/25 09:39:53;;;;;;;10.20;5.97;;;;;;;14.11;41.57;96993.03;4966264;28;20204;-82
2022/03/25 09:42:21;;;;;;;9.53;6.67;;;;;;;14.25;40.94;96989.00;5082522;27;20220;-82
2022/03/25 09:44:48;;;;;;;13.07;6.40;;;;;;;14.25;41.28;96985.47;5098338;28;20196;-82
2022/03/25 09:47:18;;;;;;;9.63;6.30;;;;;;;14.33;40.76;96987.81;5137657;27;20204;-82
2022/03/25 09:49:45;;;;;;;9.10;6.10;;;;;;;14.18;43.03;96982.88;5099265;28;20235;-82
2022/03/25 09:52:12;;;;;;;9.53;6.17;;;;;;;14.32;41.97;96973.41;5106953;28;20303;-82
2022/03/25 09:54:39;;;;;;;13.17;6.47;;;;;;;14.43;42.64;96979.09;5097197;27;20204;-82
2022/03/25 09:57:07;;;;;;;9.33;6.27;;;;;;;14.47;41.68;96975.63;5102396;28;20241;-82
2022/03/25 09:59:34;;;;;;;11.67;6.53;;;;;;;14.66;41.13;96979.84;5114105;27;20311;-83
2022/03/25 10:02:01;;;;;;;9.30;6.67;;;;;;;14.90;40.22;96977.88;5109583;27;20223;-83
2022/03/25 10:04:43;;;;;;;9.90;6.77;;;;;;;15.01;39.21;96979.75;5091975;28;20200;-83
2022/03/25 10:07:19;;;;;;;11.23;7.77;;;;;;;14.88;40.53;96987.38;5107040;28;20200;-82
2022/03/25 10:10:45;;;;;;;9.60;6.60;;;;;;;14.91;39.87;96978.72;5103377;27;20206;-83
2022/03/25 10:13:20;;;;;;;10.57;6.63;;;;;;;14.94;39.92;96981.78;5063182;28;20202;-78
2022/03/25 10:15:48;;;;;;;8.90;6.17;;;;;;;14.81;40.70;96982.03;5063091;28;20220;-78
2022/03/25 10:18:18;;;;;;;8.70;6.20;;;;;;;15.16;38.11;96973.75;5094686;27;20204;-78
2022/03/25 10:20:47;;;;;;;10.67;7.23;;;;;;;15.29;38.89;96975.34;5100196;28;20213;-78
2022/03/25 10:23:15;;;;;;;12.00;7.30;;;;;;;15.38;39.05;96972.00;5123348;27;20227;-79
2022/03/25 10:25:45;;;;;;;11.27;7.00;;;;;;;15.48;39.38;96971.34;5144236;27;20203;-78
2022/03/25 10:28:26;;;;;;;13.73;7.50;;;;;;;15.48;39.76;96977.59;5102895;27;20289;-78
2022/03/25 10:30:55;;;;;;;10.57;7.00;;;;;;;15.32;39.86;96977.56;5098885;27;20211;-79
2022/03/25 10:33:26;;;;;;;11.20;6.90;;;;;;;15.51;38.75;96970.84;5125651;27;20208;-79
2022/03/25 10:36:04;;;;;;;11.97;8.03;;;;;;;15.55;39.07;96974.75;5115552;27;20206;-79
2022/03/25 10:38:43;;;;;;;11.90;7.90;;;;;;;15.61;40.02;96964.78;5134453;27;20311;-79
2022/03/25 10:41:10;;;;;;;10.93;7.80;;;;;;;15.74;38.12;96962.53;5115487;27;20183;-79
2022/03/25 10:43:51;;;;;;;13.67;8.07;;;;;;;15.88;38.35;96955.69;5105820;28;20196;-79
2022/03/25 10:46:33;;;;;;;17.10;8.37;;;;;;;16.01;37.47;96965.41;5102315;28;20200;-79
2022/03/25 10:49:01;;;;;;;10.20;7.50;;;;;;;15.99;37.77;96964.03;5102589;27;20245;-79
2022/03/25 10:51:29;;;;;;;9.93;6.77;;;;;;;16.02;37.35;96958.06;5100991;28;20542;-79
2022/03/25 10:53:58;;;;;;;11.23;7.50;;;;;;;16.03;36.71;96957.00;5103931;28;20215;-79
2022/03/25 10:56:26;;;;;;;13.13;7.70;;;;;;;15.97;35.52;96958.00;5095170;28;20192;-79
2022/03/25 10:58:55;;;;;;;11.37;8.43;;;;;;;15.71;37.07;96949.44;5110366;28;20226;-79
2022/03/25 11:01:22;;;;;;;11.40;7.13;;;;;;;16.13;35.23;96949.81;5092774;28;20248;-79
2022/03/25 11:03:51;;;;;;;13.63;8.63;;;;;;;16.36;35.89;96950.66;5135505;27;20211;-79
2022/03/25 11:06:18;;;;;;;15.43;9.00;;;;;;;16.44;36.06;96952.94;5102073;28;20200;-80
2022/03/25 11:08:47;;;;;;;15.07;8.70;;;;;;;16.26;37.81;96943.97;5101817;28;20211;-78
2022/03/25 11:11:16;;;;;;;11.93;8.43;;;;;;;16.24;37.64;96946.16;5105590;27;20200;-78
2022/03/25 11:13:45;;;;;;;12.30;8.50;;;;;;;16.43;37.54;96941.22;5092981;28;20216;-77
2022/03/25 11:16:16;;;;;;;13.60;7.93;;;;;;;16.72;37.11;96943.78;5096108;27;20208;-78
2022/03/25 11:18:45;;;;;;;14.13;9.00;;;;;;;17.16;35.16;96937.19;5090723;28;20211;-78
2022/03/25 11:21:14;;;;;;;13.60;9.00;;;;;;;17.27;35.76;96941.66;5117871;27;20214;-77
2022/03/25 11:23:48;;;;;;;14.53;9.80;;;;;;;17.29;34.46;96934.03;5111204;27;20237;-78
2022/03/25 11:26:21;;;;;;;14.87;10.37;;;;;;;17.29;35.38;96933.19;5134645;27;20246;-77
2022/03/25 11:28:53;;;;;;;16.43;10.50;;;;;;;17.20;35.84;96930.13;5111604;27;20223;-78
2022/03/25 11:31:20;;;;;;;17.40;10.27;;;;;;;17.21;36.23;96923.59;5103641;28;20212;-78
2022/03/25 11:34:09;;;;;;;17.33;10.30;;;;;;;17.31;36.58;96923.69;5107492;27;20203;-78
2022/03/25 11:36:40;;;;;;;17.53;11.67;;;;;;;17.34;36.24;96923.19;5143370;27;20223;-78
2022/03/25 11:39:21;;;;;;;15.97;10.90;;;;;;;17.45;35.51;96920.50;5135750;27;20200;-78
2022/03/25 11:41:49;;;;;;;15.50;10.13;;;;;;;17.46;35.44;96916.69;5134074;27;20226;-78
2022/03/25 11:44:25;;;;;;;17.43;11.57;;;;;;;17.58;35.95;96898.25;5117580;27;20210;-78
2022/03/25 11:47:17;;;;;;;18.33;11.57;;;;;;;17.85;36.04;96904.50;5106123;28;20203;-78
2022/03/25 11:49:45;;;;;;;16.23;11.80;;;;;;;17.84;35.96;96900.13;5133533;27;20203;-78
2022/03/25 11:52:30;;;;;;;18.47;13.00;;;;;;;17.92;36.10;96899.63;5104686;27;20208;-78
2022/03/25 11:54:58;;;;;;;20.17;12.23;;;;;;;18.06;36.38;96895.31;5119411;27;20257;-78
2022/03/25 11:57:28;;;;;;;17.17;11.47;;;;;;;18.14;34.90;96900.28;5097883;27;20208;-78
2022/03/25 11:59:57;;;;;;;19.50;12.70;;;;;;;18.08;36.66;96890.44;5093958;28;20327;-78
2022/03/25 12:02:36;;;;;;;21.67;13.33;;;;;;;18.14;35.91;96894.00;5102370;27;20223;-78
2022/03/25 12:05:06;;;;;;;19.77;12.80;;;;;;;18.44;34.87;96896.91;5131794;27;20592;-78
2022/03/25 12:07:33;;;;;;;19.57;13.20;;;;;;;18.45;34.69;96882.16;5123586;27;20200;-78
2022/03/25 12:10:00;;;;;;;19.97;13.77;;;;;;;18.37;35.59;96882.63;5107526;27;20204;-78
2022/03/25 12:12:57;;;;;;;26.33;15.33;;;;;;;18.39;34.74;96877.72;5110432;27;20207;-78
2022/03/25 12:15:44;;;;;;;24.67;14.93;;;;;;;18.07;34.86;96866.91;5112764;27;20227;-78
2022/03/25 12:18:39;;;;;;;24.50;15.27;;;;;;;18.07;35.38;96857.91;5111573;27;20294;-79
2022/03/25 12:21:12;;;;;;;27.00;14.53;;;;;;;18.19;35.76;96860.44;5111431;27;20280;-78
2022/03/25 12:23:39;;;;;;;24.27;15.63;;;;;;;18.10;35.50;96850.00;5126023;27;20227;-78
2022/03/25 12:26:06;;;;;;;24.30;14.00;;;;;;;18.09;35.61;96851.09;5109080;27;20210;-79
2022/03/25 12:28:35;;;;;;;24.70;15.10;;;;;;;18.08;35.33;96837.69;5138225;27;20335;-78
2022/03/25 12:31:04;;;;;;;23.37;14.17;;;;;;;18.04;36.02;96842.84;5101446;28;20213;-77
2022/03/25 12:33:34;;;;;;;29.37;17.40;;;;;;;18.32;35.67;96846.25;5113077;27;20198;-82
2022/03/25 12:36:09;;;;;;;28.47;17.17;;;;;;;18.58;34.81;96845.28;5108283;27;20214;-82
2022/03/25 13:03:23;;;;;;;25.97;15.03;;;;;;;18.82;33.54;96804.56;5019211;28;20241;-81
2022/03/25 13:05:52;;;;;;;25.37;15.60;;;;;;;18.68;34.37;96803.47;5005620;28;20204;-81
2022/03/25 13:11:53;;;;;;;20.97;14.67;;;;;;;18.92;34.45;96798.31;5015362;28;20207;-81
2022/03/25 13:14:21;;;;;;;25.23;15.43;;;;;;;18.88;34.19;96793.34;5040463;28;20216;-81
2022/03/25 13:23:37;;;;;;;27.80;16.13;;;;;;;18.99;34.83;96785.16;5049910;28;20306;-81
2022/03/25 13:26:06;;;;;;;29.43;17.70;;;;;;;19.10;34.92;96784.91;5086779;28;20292;-81
2022/03/25 13:42:10;;;;;;;33.60;18.00;;;;;;;19.24;35.15;96768.75;5125591;27;20549;-81
2022/03/25 13:44:37;;;;;;;27.58;17.30;;;;;;;19.19;35.34;96763.28;5133697;27;20204;-81
2022/03/25 13:47:08;;;;;;;31.30;18.85;;;;;;;19.38;34.50;96761.63;5116755;27;20286;-81